createdAt,value
2023-01-15T00:01:27.491Z,2.20
2023-01-15T00:04:34.235Z,2.20
2023-01-15T00:07:41.002Z,2.40
2023-01-15T00:10:48.149Z,2.50
2023-01-15T00:13:55.079Z,2.10
2023-01-15T00:17:01.773Z,2.50
2023-01-15T00:20:10.582Z,2.30
2023-01-15T00:23:37.399Z,2.10
2023-01-15T00:27:01.957Z,1.70
2023-01-15T00:30:11.869Z,2.00
2023-01-15T00:33:18.987Z,2.10
2023-01-15T00:36:28.037Z,2.00
2023-01-15T00:39:35.645Z,2.20
2023-01-15T00:42:43.066Z,2.40
2023-01-15T00:45:54.018Z,1.60
2023-01-15T00:49:00.829Z,1.50
2023-01-15T00:52:08.241Z,1.80
2023-01-15T00:55:14.907Z,1.80
2023-01-15T00:58:22.750Z,1.40
2023-01-15T01:01:30.242Z,1.50
2023-01-15T01:04:37.765Z,1.80
2023-01-15T01:07:45.788Z,2.10
2023-01-15T01:11:01.807Z,1.80
2023-01-15T01:14:09.035Z,1.10
2023-01-15T01:17:15.845Z,1.10
2023-01-15T01:20:22.824Z,1.50
2023-01-15T01:23:29.668Z,1.30
2023-01-15T01:26:36.955Z,1.20
2023-01-15T01:29:43.714Z,1.40
2023-01-15T01:32:50.838Z,1.20
2023-01-15T01:35:57.479Z,1.40
2023-01-15T01:39:05.857Z,1.20
2023-01-15T01:42:15.861Z,1.60
2023-01-15T01:45:27.648Z,1.20
2023-01-15T01:48:36.527Z,1.30
2023-01-15T01:51:46.989Z,1.20
2023-01-15T01:54:54.342Z,1.10
2023-01-15T01:58:04.244Z,1.10
2023-01-15T02:01:11.383Z,1.30
2023-01-15T02:04:19.896Z,1.20
2023-01-15T02:07:28.165Z,1.00
2023-01-15T02:10:35.723Z,0.90
2023-01-15T02:13:49.718Z,1.00
2023-01-15T02:17:02.437Z,1.10
2023-01-15T02:20:29.429Z,0.70
2023-01-15T02:24:03.122Z,1.00
2023-01-15T02:27:16.038Z,0.80
2023-01-15T02:30:30.463Z,1.20
2023-01-15T02:33:41.980Z,1.00
2023-01-15T02:36:54.178Z,1.10
2023-01-15T02:40:07.126Z,0.90
2023-01-15T02:43:16.891Z,0.90
2023-01-15T02:46:29.342Z,1.20
2023-01-15T02:49:37.730Z,0.90
2023-01-15T02:52:50.192Z,1.20
2023-01-15T02:56:04.366Z,0.80
2023-01-15T02:59:19.594Z,1.00
2023-01-15T03:02:31.418Z,0.70
2023-01-15T03:05:44.798Z,1.00
2023-01-15T03:08:52.392Z,1.10
2023-01-15T03:12:08.027Z,1.10
2023-01-15T03:15:41.182Z,0.80
2023-01-15T03:18:53.648Z,1.00
2023-01-15T03:22:04.547Z,1.00
2023-01-15T03:25:17.284Z,0.90
2023-01-15T03:28:30.386Z,1.10
2023-01-15T03:31:38.963Z,0.80
2023-01-15T03:34:49.112Z,1.10
2023-01-15T03:37:57.768Z,1.30
2023-01-15T03:41:15.156Z,0.80
2023-01-15T03:44:33.848Z,0.80
2023-01-15T03:47:51.546Z,1.30
2023-01-15T03:51:05.349Z,0.90
2023-01-15T03:54:19.942Z,1.00
2023-01-15T03:57:33.933Z,0.90
2023-01-15T04:00:45.735Z,0.90
2023-01-15T04:03:55.525Z,1.10
2023-01-15T04:07:05.340Z,1.00
2023-01-15T04:10:14.426Z,1.30
2023-01-15T04:13:21.917Z,0.80
2023-01-15T04:16:31.009Z,1.00
2023-01-15T04:19:38.686Z,1.20
2023-01-15T04:22:48.340Z,1.00
2023-01-15T04:25:55.072Z,1.20
2023-01-15T04:29:01.814Z,0.80
2023-01-15T04:32:08.693Z,1.30
2023-01-15T04:35:15.455Z,1.30
2023-01-15T04:38:22.227Z,1.00
2023-01-15T04:41:46.769Z,1.30
2023-01-15T04:44:53.464Z,1.20
2023-01-15T04:48:00.240Z,1.50
2023-01-15T04:51:08.510Z,0.90
2023-01-15T04:54:17.267Z,1.10
2023-01-15T04:57:24.401Z,1.00
2023-01-15T05:00:31.164Z,1.00
2023-01-15T05:03:37.808Z,1.00
2023-01-15T05:06:44.550Z,1.00
2023-01-15T05:09:53.030Z,1.10
2023-01-15T05:12:59.741Z,0.90
2023-01-15T05:16:16.295Z,1.30
2023-01-15T05:19:23.191Z,1.00
2023-01-15T05:22:30.119Z,1.00
2023-01-15T05:25:38.989Z,1.50
2023-01-15T05:28:46.119Z,1.50
2023-01-15T05:31:52.954Z,1.40
2023-01-15T05:34:59.645Z,1.30
2023-01-15T05:38:07.105Z,1.60
2023-01-15T05:41:29.861Z,1.20
2023-01-15T05:44:36.695Z,1.20
2023-01-15T05:47:43.420Z,1.70
2023-01-15T05:50:50.233Z,1.60
2023-01-15T05:53:57.920Z,1.40
2023-01-15T05:57:05.415Z,1.40
2023-01-15T06:00:15.004Z,1.60
2023-01-15T06:03:22.547Z,1.20
2023-01-15T06:06:29.440Z,1.50
2023-01-15T06:09:36.240Z,1.80
2023-01-15T06:12:43.090Z,1.60
2023-01-15T06:15:49.851Z,1.50
2023-01-15T06:18:58.199Z,1.40
2023-01-15T06:22:05.439Z,1.50
2023-01-15T06:25:12.263Z,1.50
2023-01-15T06:28:19.158Z,1.70
2023-01-15T06:31:27.913Z,1.80
2023-01-15T06:34:36.450Z,1.50
2023-01-15T06:37:43.071Z,1.30
2023-01-15T06:40:49.893Z,1.60
2023-01-15T06:44:14.258Z,1.50
2023-01-15T06:47:23.658Z,1.50
2023-01-15T06:53:36.008Z,1.50
2023-01-15T06:56:42.817Z,1.30
2023-01-15T06:59:49.972Z,1.50
2023-01-15T07:02:56.830Z,1.80
2023-01-15T07:06:08.998Z,1.80
2023-01-15T07:09:16.027Z,1.80
2023-01-15T07:12:23.646Z,2.40
2023-01-15T07:15:31.198Z,1.40
2023-01-15T07:18:37.901Z,1.90
2023-01-15T07:21:45.004Z,1.30
2023-01-15T07:24:51.827Z,1.80
2023-01-15T07:27:58.643Z,1.70
2023-01-15T07:31:05.623Z,1.90
2023-01-15T07:34:12.697Z,1.90
2023-01-15T07:37:19.473Z,2.20
2023-01-15T07:40:26.267Z,2.20
2023-01-15T07:43:50.918Z,2.20
2023-01-15T07:47:26.878Z,2.00
2023-01-15T07:50:33.523Z,2.40
2023-01-15T07:53:40.468Z,2.20
2023-01-15T07:56:47.490Z,2.20
2023-01-15T07:59:54.422Z,1.90
2023-01-15T08:03:02.723Z,2.10
2023-01-15T08:06:09.953Z,2.20
2023-01-15T08:09:16.883Z,2.60
2023-01-15T08:12:49.728Z,2.30
2023-01-15T08:15:56.408Z,2.40
2023-01-15T08:19:03.100Z,2.90
2023-01-15T08:22:11.424Z,2.40
2023-01-15T08:25:20.453Z,2.50
2023-01-15T08:28:27.299Z,2.00
2023-01-15T08:31:34.717Z,2.00
2023-01-15T08:34:41.475Z,1.80
2023-01-15T08:37:48.245Z,1.70
2023-01-15T08:41:00.818Z,2.40
2023-01-15T08:44:07.772Z,1.90
2023-01-15T08:47:14.467Z,2.20
2023-01-15T08:50:21.517Z,2.20
2023-01-15T08:53:29.762Z,2.20
2023-01-15T08:56:36.530Z,2.10
2023-01-15T08:59:43.960Z,2.10
2023-01-15T09:02:50.731Z,2.10
2023-01-15T09:05:59.125Z,2.00
2023-01-15T09:09:06.045Z,1.90
2023-01-15T09:12:14.243Z,2.20
2023-01-15T09:15:21.161Z,1.90
2023-01-15T09:18:28.581Z,1.70
2023-01-15T09:21:35.988Z,2.10
2023-01-15T09:24:42.616Z,1.00
2023-01-15T09:27:49.967Z,1.50
2023-01-15T09:30:56.697Z,0.60
2023-01-15T09:34:03.737Z,0.40
2023-01-15T09:37:10.673Z,0.30
2023-01-15T09:40:31.487Z,0.60
2023-01-15T09:43:51.221Z,0.70
2023-01-15T09:47:09.082Z,0.40
2023-01-15T09:50:26.559Z,0.90
2023-01-15T09:53:46.840Z,0.70
2023-01-15T09:56:55.801Z,0.80
2023-01-15T10:00:05.551Z,1.00
2023-01-15T10:03:32.398Z,2.10
2023-01-15T10:06:46.994Z,1.30
2023-01-15T10:10:00.388Z,1.30
2023-01-15T10:13:18.202Z,0.80
2023-01-15T10:16:27.787Z,1.20
2023-01-15T10:23:11.003Z,1.00
2023-01-15T10:26:29.425Z,1.30
2023-01-15T10:29:43.512Z,1.20
2023-01-15T10:33:02.248Z,1.10
2023-01-15T10:36:13.417Z,1.10
2023-01-15T10:39:31.208Z,1.20
2023-01-15T10:42:48.370Z,1.40
2023-01-15T10:45:58.470Z,1.40
2023-01-15T10:49:14.166Z,1.60
2023-01-15T10:52:29.410Z,1.70
2023-01-15T10:55:40.043Z,2.30
2023-01-15T10:58:53.557Z,2.20
2023-01-15T11:02:03.657Z,1.40
2023-01-15T11:05:16.356Z,1.50
2023-01-15T11:09:07.463Z,1.50
2023-01-15T11:12:37.969Z,1.30
2023-01-15T11:16:06.685Z,1.10
2023-01-15T11:19:38.168Z,1.40
2023-01-15T11:22:45.172Z,1.20
2023-01-15T11:25:54.567Z,1.70
2023-01-15T11:29:13.160Z,1.00
2023-01-15T11:32:31.486Z,1.00
2023-01-15T11:35:38.219Z,0.50
2023-01-15T11:38:49.922Z,1.30
2023-01-15T11:42:21.305Z,1.50
2023-01-15T11:45:59.897Z,1.10
2023-01-15T11:49:29.697Z,1.20
2023-01-15T11:52:38.359Z,1.20
2023-01-15T11:55:54.346Z,1.20
2023-01-15T11:59:03.317Z,1.10
2023-01-15T12:02:20.041Z,1.10
2023-01-15T12:05:35.835Z,1.50
2023-01-15T12:08:51.414Z,1.50
2023-01-15T12:12:07.935Z,1.10
2023-01-15T12:15:30.160Z,1.40
2023-01-15T12:18:56.983Z,1.30
2023-01-15T12:22:18.102Z,1.50
2023-01-15T12:25:36.301Z,1.60
2023-01-15T12:28:52.188Z,1.60
2023-01-15T12:32:04.317Z,1.20
2023-01-15T12:35:23.354Z,1.60
2023-01-15T12:38:42.603Z,2.00
2023-01-15T12:42:11.922Z,2.20
2023-01-15T12:45:23.016Z,2.00
2023-01-15T12:48:36.167Z,2.40
2023-01-15T12:51:50.091Z,3.10
2023-01-15T12:55:05.532Z,2.60
2023-01-15T12:58:30.364Z,2.50
2023-01-15T13:01:53.625Z,2.20
2023-01-15T13:05:13.155Z,2.00
2023-01-15T13:11:29.291Z,1.90
2023-01-15T13:14:36.348Z,1.70
2023-01-15T13:17:57.743Z,2.30
2023-01-15T13:21:13.539Z,2.40
2023-01-15T13:24:37.910Z,1.70
2023-01-15T13:28:00.750Z,2.20
2023-01-15T13:31:23.122Z,2.30
2023-01-15T13:34:36.431Z,2.30
2023-01-15T13:37:48.343Z,2.70
2023-01-15T13:40:58.788Z,2.80
2023-01-15T13:44:05.875Z,3.60
2023-01-15T13:47:19.458Z,4.00
2023-01-15T13:50:32.044Z,3.80
2023-01-15T13:53:41.019Z,4.30
2023-01-15T13:56:47.698Z,4.00
2023-01-15T13:59:54.586Z,4.50
2023-01-15T14:03:03.782Z,3.40
2023-01-15T14:06:12.846Z,3.20
2023-01-15T14:09:34.891Z,3.70
2023-01-15T14:12:55.363Z,2.50
2023-01-15T14:16:12.396Z,2.70
2023-01-15T14:19:41.840Z,3.00
2023-01-15T14:26:21.775Z,3.40
2023-01-15T14:29:50.804Z,3.00
2023-01-15T14:33:07.653Z,3.00
2023-01-15T14:36:20.551Z,2.90
2023-01-15T14:39:38.782Z,2.50
2023-01-15T14:43:05.060Z,2.70
2023-01-15T14:46:23.019Z,3.30
2023-01-15T14:49:45.506Z,2.40
2023-01-15T14:52:53.794Z,3.40
2023-01-15T14:56:08.666Z,2.40
2023-01-15T14:59:23.101Z,3.10
2023-01-15T15:02:38.180Z,3.10
2023-01-15T15:05:47.111Z,2.90
2023-01-15T15:08:56.259Z,3.50
2023-01-15T15:12:21.442Z,3.20
2023-01-15T15:15:40.322Z,2.90
2023-01-15T15:18:58.559Z,2.70
2023-01-15T15:22:08.581Z,3.10
2023-01-15T15:25:23.569Z,3.40
2023-01-15T15:28:31.065Z,3.60
2023-01-15T15:31:40.272Z,3.10
2023-01-15T15:34:51.250Z,2.80
2023-01-15T15:38:00.101Z,2.60
2023-01-15T15:41:12.219Z,2.20
2023-01-15T15:44:44.619Z,3.00
2023-01-15T15:48:15.284Z,3.00
2023-01-15T15:51:38.215Z,2.90
2023-01-15T15:54:45.318Z,2.60
2023-01-15T15:57:56.640Z,2.70
2023-01-15T16:01:04.170Z,2.90
2023-01-15T16:04:18.998Z,3.80
2023-01-15T16:07:29.702Z,3.60
2023-01-15T16:10:37.901Z,2.80
2023-01-15T16:13:48.406Z,3.10
2023-01-15T16:16:56.242Z,2.60
2023-01-15T16:20:03.559Z,3.00
2023-01-15T16:23:23.076Z,3.10
2023-01-15T16:29:49.293Z,2.70
2023-01-15T16:33:00.246Z,2.90
2023-01-15T16:36:08.678Z,3.50
2023-01-15T16:39:25.464Z,3.90
2023-01-15T16:42:36.545Z,3.90
2023-01-15T16:46:01.078Z,3.80
2023-01-15T16:49:29.376Z,3.30
2023-01-15T16:52:51.461Z,3.90
2023-01-15T16:55:59.791Z,3.90
2023-01-15T16:59:15.787Z,4.10
2023-01-15T17:02:22.817Z,3.30
2023-01-15T17:05:32.273Z,3.40
2023-01-15T17:08:39.942Z,3.60
2023-01-15T17:11:52.793Z,3.60
2023-01-15T17:15:22.198Z,3.00
2023-01-15T17:21:38.035Z,3.00
2023-01-15T17:24:50.989Z,3.40
2023-01-15T17:28:15.221Z,3.70
2023-01-15T17:31:32.724Z,2.80
2023-01-15T17:34:39.460Z,3.60
2023-01-15T17:37:46.322Z,3.00
2023-01-15T17:40:55.778Z,3.70
2023-01-15T17:44:03.053Z,3.50
2023-01-15T17:47:10.353Z,3.80
2023-01-15T17:50:18.530Z,3.80
2023-01-15T17:53:25.890Z,4.20
2023-01-15T17:56:50.066Z,4.50
2023-01-15T18:00:14.427Z,3.60
2023-01-15T18:03:42.389Z,3.40
2023-01-15T18:06:54.284Z,4.00
2023-01-15T18:10:01.807Z,3.90
2023-01-15T18:13:08.699Z,3.60
2023-01-15T18:16:17.024Z,2.70
2023-01-15T18:19:23.876Z,3.40
2023-01-15T18:22:30.879Z,4.00
2023-01-15T18:25:39.504Z,3.80
2023-01-15T18:28:47.008Z,3.10
2023-01-15T18:31:53.778Z,3.60
2023-01-15T18:35:00.568Z,5.00
2023-01-15T18:38:07.368Z,4.20
2023-01-15T18:41:38.948Z,3.40
2023-01-15T18:45:03.379Z,3.60
2023-01-15T18:48:10.307Z,3.90
2023-01-15T18:51:17.097Z,2.80
2023-01-15T18:54:23.715Z,3.50
2023-01-15T18:57:33.048Z,3.70
2023-01-15T19:00:39.972Z,3.60
2023-01-15T19:03:46.826Z,3.70
2023-01-15T19:06:54.615Z,2.90
2023-01-15T19:10:01.295Z,2.80
2023-01-15T19:13:08.232Z,2.70
2023-01-15T19:16:35.241Z,2.60
2023-01-15T19:19:43.438Z,2.80
2023-01-15T19:23:06.023Z,3.00
2023-01-15T19:26:12.937Z,2.90
2023-01-15T19:29:19.621Z,2.20
2023-01-15T19:32:26.354Z,2.60
2023-01-15T19:35:35.279Z,2.80
2023-01-15T19:38:41.949Z,2.20
2023-01-15T19:42:06.215Z,2.50
2023-01-15T19:45:31.865Z,2.00
2023-01-15T19:48:56.165Z,1.80
2023-01-15T19:52:20.806Z,3.10
2023-01-15T19:55:28.991Z,3.10
2023-01-15T19:58:37.195Z,2.50
2023-01-15T20:01:44.249Z,2.60
2023-01-15T20:04:51.335Z,2.50
2023-01-15T20:07:58.474Z,2.80
2023-01-15T20:11:09.476Z,2.80
2023-01-15T20:14:16.402Z,1.80
2023-01-15T20:17:23.644Z,1.80
2023-01-15T20:20:30.376Z,2.40
2023-01-15T20:23:37.616Z,1.60
2023-01-15T20:26:44.423Z,1.90
2023-01-15T20:29:52.269Z,2.20
2023-01-15T20:32:59.959Z,1.80
2023-01-15T20:36:07.505Z,1.90
2023-01-15T20:39:16.223Z,2.40
2023-01-15T20:42:40.546Z,2.30
2023-01-15T20:45:47.399Z,1.90
2023-01-15T20:49:11.779Z,2.40
2023-01-15T20:52:18.500Z,1.90
2023-01-15T20:55:31.120Z,1.90
2023-01-15T20:58:39.277Z,2.30
2023-01-15T21:01:46.385Z,2.30
2023-01-15T21:04:53.215Z,1.90
2023-01-15T21:08:00.231Z,2.20
2023-01-15T21:11:07.303Z,1.90
2023-01-15T21:14:14.420Z,1.60
2023-01-15T21:17:21.317Z,1.30
2023-01-15T21:20:28.148Z,2.30
2023-01-15T21:23:34.811Z,1.40
2023-01-15T21:26:41.824Z,1.70
2023-01-15T21:29:49.922Z,2.00
2023-01-15T21:32:58.592Z,1.50
2023-01-15T21:36:11.729Z,1.30
2023-01-15T21:39:20.374Z,1.40
2023-01-15T21:42:44.711Z,1.60
2023-01-15T21:45:51.802Z,1.30
2023-01-15T21:48:59.916Z,1.60
2023-01-15T21:52:09.930Z,1.00
2023-01-15T21:55:17.039Z,1.40
2023-01-15T21:58:23.880Z,1.10
2023-01-15T22:01:31.192Z,1.60
2023-01-15T22:04:38.900Z,1.40
2023-01-15T22:07:45.611Z,0.80
2023-01-15T22:10:53.244Z,1.30
2023-01-15T22:14:00.007Z,1.60
2023-01-15T22:17:07.588Z,1.60
2023-01-15T22:20:15.140Z,1.20
2023-01-15T22:23:21.962Z,1.90
2023-01-15T22:26:30.642Z,1.50
2023-01-15T22:29:41.244Z,1.90
2023-01-15T22:32:49.521Z,2.00
2023-01-15T22:39:06.536Z,1.30
2023-01-15T22:42:27.883Z,1.50
2023-01-15T22:45:34.960Z,1.70
2023-01-15T22:48:41.616Z,1.80
2023-01-15T22:51:48.345Z,1.70
2023-01-15T22:54:55.057Z,1.50
2023-01-15T22:58:01.594Z,1.10
2023-01-15T23:01:08.783Z,1.40
2023-01-15T23:04:18.726Z,2.00
2023-01-15T23:07:25.479Z,1.60
2023-01-15T23:10:32.284Z,1.60
2023-01-15T23:13:39.319Z,1.40
2023-01-15T23:16:46.462Z,1.40
2023-01-15T23:19:53.567Z,1.40
2023-01-15T23:23:00.549Z,1.30
2023-01-15T23:26:09.545Z,1.80
2023-01-15T23:29:16.302Z,1.20
2023-01-15T23:32:23.326Z,0.80
2023-01-15T23:35:30.288Z,1.20
2023-01-15T23:38:37.184Z,1.10
2023-01-15T23:42:01.741Z,1.40
2023-01-15T23:45:28.313Z,1.60
2023-01-15T23:48:34.988Z,1.40
2023-01-15T23:51:41.782Z,1.10
2023-01-15T23:54:48.578Z,1.30
2023-01-15T23:57:55.500Z,0.80
